Archival Weather

Dewar Lakes

Dewar Lakes, Canada (CWUW)

Report from: Friday, May 26, 2023 4:00 AM EDT
Current time: Thursday, July 18, 2024 11:30 PM EDT

Current weather – Weather history – Daily summaries
Weather forecast

Present weatherSM
Temperature-16.0°C (3.2°F)
Wind chill-28.4°C (-19.1°F)
Dew point-18.0°C (-0.4°F)
Winds 20 kts (10.3 m/s, 23 mph) North-Northwest (330°)
Wind gusts 26 kts (13.4 m/s, 29.9 mph)
Visibility0 ft. (0 m)
Altimeter29.53 in.Hg (1000 mB)
Relative humidity84 %
Density altitude-3,442 ft. (-1,049 m)
Remarks Fully automated report
Flight conditions Low Instrument Meteorological Conditions
Raw dataCWUW 260800Z AUTO 33020G26KT ////SM ////// M16/M18 A2953
An error has occurred. This application may no longer respond until reloaded. Reload 🗙